createdAt,value
2023-04-15T00:00:59.788Z,13.35
2023-04-15T00:03:28.719Z,13.41
2023-04-15T00:05:56.361Z,13.18
2023-04-15T00:08:23.775Z,13.22
2023-04-15T00:10:50.991Z,13.37
2023-04-15T00:13:17.947Z,13.40
2023-04-15T00:15:44.794Z,13.55
2023-04-15T00:18:11.731Z,13.54
2023-04-15T00:20:38.637Z,13.61
2023-04-15T00:23:05.717Z,13.61
2023-04-15T00:25:33.151Z,13.52
2023-04-15T00:28:00.145Z,13.53
2023-04-15T00:30:28.427Z,13.51
2023-04-15T00:32:55.495Z,13.45
2023-04-15T00:35:24.101Z,13.45
2023-04-15T00:37:51.590Z,13.43
2023-04-15T00:40:21.102Z,13.22
2023-04-15T00:42:48.376Z,12.70
2023-04-15T00:45:15.884Z,12.53
2023-04-15T00:50:44.916Z,11.92
2023-04-15T00:53:12.353Z,12.07
2023-04-15T00:55:40.066Z,11.92
2023-04-15T00:58:07.219Z,12.24
2023-04-15T01:00:34.713Z,12.53
2023-04-15T01:03:01.830Z,12.70
2023-04-15T01:05:30.313Z,12.86
2023-04-15T01:07:57.339Z,12.99
2023-04-15T01:10:24.331Z,13.02
2023-04-15T01:16:13.260Z,12.87
2023-04-15T01:18:40.436Z,12.77
2023-04-15T01:21:07.828Z,12.71
2023-04-15T01:23:38.625Z,12.77
2023-04-15T01:26:08.033Z,12.64
2023-04-15T01:28:36.395Z,12.60
2023-04-15T01:31:13.734Z,12.67
2023-04-15T01:33:42.444Z,12.80
2023-04-15T01:36:28.249Z,12.90
2023-04-15T01:38:56.016Z,12.99
2023-04-15T01:41:29.226Z,13.12
2023-04-15T01:43:57.504Z,13.20
2023-04-15T01:46:25.821Z,13.23
2023-04-15T01:48:55.052Z,13.25
2023-04-15T01:51:23.337Z,13.22
2023-04-15T01:53:52.460Z,13.29
2023-04-15T01:56:20.584Z,13.32
2023-04-15T01:58:49.040Z,13.20
2023-04-15T02:01:19.658Z,13.08
2023-04-15T02:03:48.341Z,13.19
2023-04-15T02:06:17.185Z,13.05
2023-04-15T02:08:45.383Z,12.84
2023-04-15T02:11:13.666Z,13.13
2023-04-15T02:13:41.872Z,13.06
2023-04-15T02:16:17.807Z,13.00
2023-04-15T02:18:47.094Z,13.00
2023-04-15T02:21:15.130Z,12.80
2023-04-15T02:23:44.077Z,12.77
2023-04-15T02:26:14.905Z,12.76
2023-04-15T02:28:42.928Z,12.75
2023-04-15T02:31:11.045Z,12.77
2023-04-15T02:33:39.175Z,12.82
2023-04-15T02:36:08.432Z,12.71
2023-04-15T02:38:36.680Z,12.74
2023-04-15T02:41:04.887Z,12.69
2023-04-15T02:43:32.913Z,12.68
2023-04-15T02:46:01.311Z,12.68
2023-04-15T02:48:29.602Z,12.37
2023-04-15T02:51:22.748Z,12.12
2023-04-15T02:53:51.133Z,12.22
2023-04-15T02:56:19.936Z,12.20
2023-04-15T02:58:50.686Z,12.11
2023-04-15T03:01:20.586Z,11.80
2023-04-15T03:03:49.118Z,11.85
2023-04-15T03:06:17.266Z,11.89
2023-04-15T03:08:45.715Z,12.01
2023-04-15T03:11:15.552Z,12.10
2023-04-15T03:13:43.707Z,12.28
2023-04-15T03:16:23.090Z,12.46
2023-04-15T03:18:51.578Z,12.38
2023-04-15T03:21:22.004Z,12.46
2023-04-15T03:23:50.690Z,12.41
2023-04-15T03:26:29.982Z,12.24
2023-04-15T03:29:02.166Z,12.45
2023-04-15T03:31:30.624Z,12.62
2023-04-15T03:33:58.753Z,12.56
2023-04-15T03:36:29.317Z,12.66
2023-04-15T03:38:57.979Z,12.76
2023-04-15T03:41:26.512Z,12.71
2023-04-15T03:43:54.589Z,12.66
2023-04-15T03:46:22.765Z,12.69
2023-04-15T03:48:51.164Z,12.59
2023-04-15T03:51:19.285Z,12.52
2023-04-15T03:53:47.362Z,12.20
2023-04-15T03:56:51.114Z,12.03
2023-04-15T04:03:00.074Z,11.92
2023-04-15T04:05:28.252Z,11.75
2023-04-15T04:07:56.548Z,11.75
2023-04-15T04:10:24.606Z,11.92
2023-04-15T04:12:52.663Z,12.23
2023-04-15T04:15:20.720Z,12.32
2023-04-15T04:17:48.769Z,12.46
2023-04-15T04:20:16.957Z,12.56
2023-04-15T04:22:45.015Z,12.56
2023-04-15T04:25:13.093Z,12.65
2023-04-15T04:27:41.172Z,12.59
2023-04-15T04:30:09.441Z,12.09
2023-04-15T04:32:37.789Z,11.80
2023-04-15T04:35:06.044Z,11.73
2023-04-15T04:37:34.130Z,11.64
2023-04-15T04:40:02.467Z,11.72
2023-04-15T04:42:31.547Z,11.82
2023-04-15T04:44:59.573Z,11.88
2023-04-15T04:47:27.727Z,11.75
2023-04-15T04:49:55.956Z,11.75
2023-04-15T04:52:24.184Z,11.87
2023-04-15T04:54:52.260Z,11.64
2023-04-15T04:57:20.856Z,11.74
2023-04-15T04:59:48.915Z,12.02
2023-04-15T05:02:17.137Z,12.23
2023-04-15T05:04:45.508Z,12.35
2023-04-15T05:07:13.608Z,12.50
2023-04-15T05:09:42.182Z,12.63
2023-04-15T05:12:15.015Z,12.44
2023-04-15T05:14:43.137Z,12.35
2023-04-15T05:17:11.581Z,12.37
2023-04-15T05:19:39.640Z,12.48
2023-04-15T05:22:08.209Z,12.65
2023-04-15T05:24:36.487Z,12.82
2023-04-15T05:27:04.804Z,13.08
2023-04-15T05:29:32.947Z,13.23
2023-04-15T05:32:01.254Z,13.39
2023-04-15T05:34:29.563Z,13.45
2023-04-15T05:36:57.690Z,13.92
2023-04-15T05:39:25.716Z,14.16
2023-04-15T05:41:53.813Z,14.28
2023-04-15T05:44:21.978Z,14.24
2023-04-15T05:46:49.988Z,14.21
2023-04-15T05:49:18.118Z,14.20
2023-04-15T05:51:47.960Z,14.19
2023-04-15T05:54:17.713Z,14.15
2023-04-15T05:56:47.118Z,14.06
2023-04-15T05:59:16.863Z,14.15
2023-04-15T06:01:45.842Z,14.22
2023-04-15T06:04:18.263Z,14.35
2023-04-15T06:06:46.532Z,14.43
2023-04-15T06:09:14.741Z,14.55
2023-04-15T06:11:43.016Z,14.51
2023-04-15T06:14:11.355Z,14.73
2023-04-15T06:16:40.019Z,14.71
2023-04-15T06:19:08.507Z,14.81
2023-04-15T06:21:36.810Z,14.80
2023-04-15T06:24:05.355Z,14.48
2023-04-15T06:26:33.551Z,14.64
2023-04-15T06:29:01.746Z,14.76
2023-04-15T06:31:30.564Z,14.85
2023-04-15T06:33:58.568Z,14.94
2023-04-15T06:36:26.637Z,14.89
2023-04-15T06:38:54.775Z,14.92
2023-04-15T06:41:23.045Z,14.61
2023-04-15T06:43:51.547Z,14.50
2023-04-15T06:46:19.792Z,14.50
2023-04-15T06:48:48.208Z,14.58
2023-04-15T06:51:16.352Z,14.57
2023-04-15T06:53:44.456Z,14.68
2023-04-15T06:56:12.500Z,14.55
2023-04-15T06:58:40.574Z,14.54
2023-04-15T07:01:08.966Z,14.77
2023-04-15T07:03:37.235Z,14.87
2023-04-15T07:06:07.231Z,15.00
2023-04-15T07:08:35.478Z,15.27
2023-04-15T07:11:03.665Z,15.83
2023-04-15T07:13:32.793Z,15.95
2023-04-15T07:16:00.932Z,16.19
2023-04-15T07:18:29.026Z,16.47
2023-04-15T07:20:57.537Z,16.11
2023-04-15T07:23:25.717Z,16.57
2023-04-15T07:25:53.878Z,16.58
2023-04-15T07:28:22.204Z,16.61
2023-04-15T07:30:50.575Z,16.43
2023-04-15T07:33:18.790Z,16.23
2023-04-15T07:35:47.250Z,16.08
2023-04-15T07:38:15.584Z,15.97
2023-04-15T07:40:44.076Z,15.69
2023-04-15T07:43:13.554Z,16.00
2023-04-15T07:45:41.623Z,15.91
2023-04-15T07:48:09.824Z,16.21
2023-04-15T07:50:38.204Z,15.77
2023-04-15T07:53:07.545Z,15.71
2023-04-15T07:55:35.644Z,16.06
2023-04-15T07:58:03.713Z,16.30
2023-04-15T08:00:32.165Z,16.39
2023-04-15T08:03:00.456Z,16.74
2023-04-15T08:05:40.004Z,16.99
2023-04-15T08:08:14.963Z,16.81
2023-04-15T08:10:43.229Z,16.23
2023-04-15T08:13:11.806Z,16.16
2023-04-15T08:15:44.296Z,16.17
2023-04-15T08:18:12.437Z,16.07
2023-04-15T08:20:40.906Z,16.12
2023-04-15T08:23:09.061Z,16.55
2023-04-15T08:25:37.698Z,16.50
2023-04-15T08:28:07.642Z,16.13
2023-04-15T08:30:35.839Z,16.37
2023-04-15T08:33:03.991Z,16.64
2023-04-15T08:35:32.837Z,16.91
2023-04-15T08:38:01.048Z,17.30
2023-04-15T08:40:45.080Z,17.06
2023-04-15T08:43:21.368Z,16.92
2023-04-15T08:45:51.958Z,17.48
2023-04-15T08:48:20.266Z,17.57
2023-04-15T08:50:48.822Z,17.28
2023-04-15T08:53:17.542Z,17.24
2023-04-15T08:55:47.414Z,17.35
2023-04-15T08:58:19.741Z,17.05
2023-04-15T09:00:48.882Z,17.14
2023-04-15T09:03:17.862Z,17.15
2023-04-15T09:05:46.263Z,16.64
2023-04-15T09:11:54.958Z,16.59
2023-04-15T09:14:23.291Z,15.88
2023-04-15T09:16:58.887Z,16.20
2023-04-15T09:19:27.918Z,16.33
2023-04-15T09:21:59.908Z,16.75
2023-04-15T09:24:37.670Z,16.50
2023-04-15T09:27:06.432Z,16.66
2023-04-15T09:29:34.651Z,17.04
2023-04-15T09:32:16.501Z,17.01
2023-04-15T09:34:44.789Z,17.24
2023-04-15T09:37:28.579Z,17.46
2023-04-15T09:40:00.121Z,17.81
2023-04-15T09:42:29.332Z,17.72
2023-04-15T09:45:08.580Z,17.49
2023-04-15T09:47:37.119Z,17.41
2023-04-15T09:50:05.711Z,16.97
2023-04-15T09:52:34.295Z,16.95
2023-04-15T09:55:02.724Z,17.34
2023-04-15T09:57:38.323Z,17.79
2023-04-15T10:00:08.451Z,18.04
2023-04-15T10:02:38.121Z,18.12
2023-04-15T10:05:07.260Z,18.43
2023-04-15T10:07:35.460Z,18.33
2023-04-15T10:10:04.496Z,18.41
2023-04-15T10:12:33.627Z,18.38
2023-04-15T10:15:05.209Z,18.72
2023-04-15T10:17:35.600Z,19.06
2023-04-15T10:20:05.453Z,19.05
2023-04-15T10:22:33.719Z,18.74
2023-04-15T10:25:04.287Z,18.94
2023-04-15T10:27:33.873Z,19.02
2023-04-15T10:30:03.919Z,19.35
2023-04-15T10:32:32.601Z,19.75
2023-04-15T10:35:01.397Z,19.33
2023-04-15T10:37:37.499Z,19.26
2023-04-15T10:40:25.485Z,19.56
2023-04-15T10:43:27.327Z,19.63
2023-04-15T10:45:55.567Z,19.12
2023-04-15T10:48:24.055Z,19.49
2023-04-15T10:51:00.671Z,19.52
2023-04-15T10:53:30.000Z,19.74
2023-04-15T10:55:59.884Z,19.98
2023-04-15T10:58:42.034Z,19.22
2023-04-15T11:01:10.123Z,19.45
2023-04-15T11:03:40.670Z,19.80
2023-04-15T11:06:09.514Z,19.58
2023-04-15T11:09:02.427Z,19.24
2023-04-15T11:12:06.198Z,19.43
2023-04-15T11:14:37.813Z,19.45
2023-04-15T11:17:06.072Z,19.73
2023-04-15T11:19:40.033Z,19.62
2023-04-15T11:22:09.882Z,19.80
2023-04-15T11:24:47.847Z,20.00
2023-04-15T11:27:25.160Z,19.85
2023-04-15T11:29:53.310Z,19.72
2023-04-15T11:32:21.849Z,19.42
2023-04-15T11:34:52.124Z,19.80
2023-04-15T11:37:29.265Z,19.82
2023-04-15T11:39:57.423Z,19.96
2023-04-15T11:42:26.841Z,20.28
2023-04-15T11:45:15.521Z,20.17
2023-04-15T11:47:43.939Z,19.41
2023-04-15T11:50:23.267Z,19.60
2023-04-15T11:53:01.462Z,19.80
2023-04-15T11:55:29.132Z,19.28
2023-04-15T11:58:18.315Z,19.00
2023-04-15T12:00:53.060Z,18.81
2023-04-15T12:03:26.665Z,19.00
2023-04-15T12:06:31.783Z,19.23
2023-04-15T12:09:00.399Z,19.73
2023-04-15T12:11:27.792Z,19.98
2023-04-15T12:14:07.434Z,19.79
2023-04-15T12:16:48.416Z,19.13
2023-04-15T12:19:22.868Z,18.93
2023-04-15T12:21:50.643Z,19.10
2023-04-15T12:24:22.961Z,19.15
2023-04-15T12:26:53.317Z,18.91
2023-04-15T12:29:21.271Z,18.87
2023-04-15T12:32:15.501Z,19.04
2023-04-15T12:34:53.374Z,18.72
2023-04-15T12:37:21.124Z,18.69
2023-04-15T12:39:49.972Z,18.84
2023-04-15T12:42:18.494Z,18.80
2023-04-15T12:44:45.864Z,18.45
2023-04-15T12:47:13.479Z,18.65
2023-04-15T12:49:41.351Z,18.78
2023-04-15T12:52:08.795Z,18.63
2023-04-15T12:54:36.435Z,18.72
2023-04-15T12:57:06.973Z,18.49
2023-04-15T12:59:35.821Z,18.68
2023-04-15T13:02:03.562Z,18.70
2023-04-15T13:04:31.395Z,18.64
2023-04-15T13:06:58.979Z,18.73
2023-04-15T13:09:29.169Z,18.80
2023-04-15T13:11:57.673Z,18.89
2023-04-15T13:14:24.946Z,19.10
2023-04-15T13:16:52.206Z,19.18
2023-04-15T13:19:19.109Z,19.14
2023-04-15T13:21:46.451Z,19.21
2023-04-15T13:24:13.365Z,19.21
2023-04-15T13:26:40.364Z,19.61
2023-04-15T13:29:07.448Z,19.89
2023-04-15T13:31:37.369Z,19.81
2023-04-15T13:34:04.627Z,19.80
2023-04-15T13:36:31.811Z,19.87
2023-04-15T13:38:59.975Z,19.66
2023-04-15T13:41:27.009Z,19.81
2023-04-15T13:43:53.989Z,19.74
2023-04-15T13:46:21.049Z,19.87
2023-04-15T13:48:48.097Z,19.88
2023-04-15T13:51:15.062Z,19.87
2023-04-15T13:53:41.953Z,19.84
2023-04-15T13:56:09.688Z,19.77
2023-04-15T14:25:33.273Z,19.93
2023-04-15T14:28:01.609Z,19.93
2023-04-15T14:30:28.651Z,20.02
2023-04-15T14:32:55.839Z,20.04
2023-04-15T14:35:24.619Z,19.99
2023-04-15T14:37:51.628Z,19.95
2023-04-15T14:40:19.109Z,19.98
2023-04-15T14:42:46.444Z,19.95
2023-04-15T14:45:13.484Z,19.72
2023-04-15T14:47:40.997Z,19.66
2023-04-15T14:50:08.450Z,19.57
2023-04-15T14:52:41.336Z,19.60
2023-04-15T14:55:12.781Z,19.60
2023-04-15T14:57:41.484Z,19.42
2023-04-15T15:00:12.202Z,19.41
2023-04-15T15:02:42.232Z,19.44
2023-04-15T15:05:11.741Z,19.54
2023-04-15T15:07:41.086Z,19.50
2023-04-15T15:10:08.510Z,19.36
2023-04-15T15:12:35.496Z,19.25
2023-04-15T15:15:12.307Z,19.14
2023-04-15T15:17:43.557Z,19.19
2023-04-15T15:20:10.961Z,19.23
2023-04-15T15:22:38.167Z,19.06
2023-04-15T15:25:05.757Z,18.97
2023-04-15T15:27:32.992Z,19.06
2023-04-15T15:30:00.059Z,19.03
2023-04-15T15:32:27.322Z,18.91
2023-04-15T15:34:54.323Z,18.75
2023-04-15T15:37:21.388Z,18.79
2023-04-15T15:39:49.074Z,18.73
2023-04-15T15:42:16.222Z,18.69
2023-04-15T15:44:43.193Z,18.68
2023-04-15T15:47:10.570Z,18.66
2023-04-15T15:49:38.053Z,18.57
2023-04-15T15:52:06.620Z,18.61
2023-04-15T15:54:34.833Z,18.57
2023-04-15T15:57:02.079Z,18.48
2023-04-15T15:59:29.080Z,18.63
2023-04-15T16:01:56.119Z,18.52
2023-04-15T16:04:23.461Z,18.40
2023-04-15T16:06:50.866Z,18.40
2023-04-15T16:09:18.263Z,18.46
2023-04-15T16:11:45.892Z,18.43
2023-04-15T16:14:14.084Z,18.40
2023-04-15T16:16:41.081Z,18.43
2023-04-15T16:19:08.420Z,18.44
2023-04-15T16:21:35.682Z,18.38
2023-04-15T16:24:03.088Z,18.19
2023-04-15T16:26:30.237Z,18.24
2023-04-15T16:28:57.269Z,18.20
2023-04-15T16:31:24.430Z,18.16
2023-04-15T16:33:51.534Z,17.96
2023-04-15T16:36:18.766Z,17.89
2023-04-15T16:38:48.574Z,17.83
2023-04-15T16:41:16.338Z,17.72
2023-04-15T16:43:43.266Z,17.63
2023-04-15T16:46:10.705Z,17.65
2023-04-15T16:48:37.910Z,17.64
2023-04-15T16:51:05.511Z,17.61
2023-04-15T16:53:32.581Z,17.64
2023-04-15T16:55:59.444Z,17.46
2023-04-15T16:58:26.863Z,17.51
2023-04-15T17:00:53.916Z,17.30
2023-04-15T17:03:21.324Z,17.28
2023-04-15T17:05:48.414Z,17.33
2023-04-15T17:08:15.425Z,17.31
2023-04-15T17:10:42.539Z,17.32
2023-04-15T17:13:09.508Z,17.37
2023-04-15T17:15:36.620Z,17.21
2023-04-15T17:18:23.309Z,17.26
2023-04-15T17:21:06.721Z,17.15
2023-04-15T17:23:42.558Z,17.04
2023-04-15T17:26:12.039Z,17.18
2023-04-15T17:28:44.062Z,17.18
2023-04-15T17:31:18.051Z,17.06
2023-04-15T17:34:09.718Z,16.93
2023-04-15T17:36:58.083Z,16.99
2023-04-15T17:39:45.016Z,16.78
2023-04-15T17:42:31.978Z,16.88
2023-04-15T17:45:19.003Z,16.91
2023-04-15T17:48:06.027Z,16.87
2023-04-15T17:50:53.072Z,16.83
2023-04-15T17:53:39.853Z,16.92
2023-04-15T17:56:29.343Z,16.83
2023-04-15T17:59:16.762Z,16.85
2023-04-15T18:02:03.837Z,16.69
2023-04-15T18:04:50.940Z,16.75
2023-04-15T18:07:37.853Z,16.79
2023-04-15T18:10:24.698Z,16.86
2023-04-15T18:13:11.565Z,16.66
2023-04-15T18:15:58.451Z,16.72
2023-04-15T18:18:45.523Z,16.51
2023-04-15T18:21:13.747Z,16.48
2023-04-15T18:23:41.085Z,16.34
2023-04-15T18:26:11.342Z,16.10
2023-04-15T18:28:39.971Z,16.28
2023-04-15T18:31:07.308Z,16.32
2023-04-15T18:33:36.062Z,16.27
2023-04-15T18:36:09.764Z,16.32
2023-04-15T18:38:37.000Z,16.18
2023-04-15T18:41:05.549Z,16.16
2023-04-15T18:43:32.736Z,16.13
2023-04-15T18:46:00.132Z,16.03
2023-04-15T18:48:27.836Z,16.00
2023-04-15T18:50:55.206Z,15.94
2023-04-15T18:53:22.716Z,15.08
2023-04-15T18:55:49.775Z,16.12
2023-04-15T18:58:16.719Z,16.16
2023-04-15T19:00:43.887Z,16.01
2023-04-15T19:03:11.462Z,15.90
2023-04-15T19:05:38.846Z,15.78
2023-04-15T19:08:05.841Z,15.85
2023-04-15T19:10:34.386Z,15.74
2023-04-15T19:13:01.298Z,15.71
2023-04-15T19:15:29.188Z,15.74
2023-04-15T19:17:56.160Z,15.62
2023-04-15T19:20:23.175Z,15.38
2023-04-15T19:22:50.142Z,15.35
2023-04-15T19:25:17.238Z,15.16
2023-04-15T19:27:44.356Z,15.29
2023-04-15T19:30:11.624Z,15.34
2023-04-15T19:32:38.604Z,15.14
2023-04-15T19:35:06.574Z,15.30
2023-04-15T19:37:33.664Z,15.24
2023-04-15T19:40:00.980Z,15.31
2023-04-15T19:42:28.696Z,15.29
2023-04-15T19:44:55.666Z,15.38
2023-04-15T19:47:23.274Z,15.33
2023-04-15T19:49:54.222Z,15.28
2023-04-15T19:52:22.402Z,15.24
2023-04-15T19:54:49.420Z,15.33
2023-04-15T19:57:16.350Z,15.48
2023-04-15T19:59:43.469Z,15.56
2023-04-15T20:02:10.859Z,15.49
2023-04-15T20:04:41.107Z,15.60
2023-04-15T20:07:08.399Z,15.69
2023-04-15T20:09:35.668Z,15.81
2023-04-15T20:12:46.817Z,15.62
2023-04-15T20:14:49.844Z,15.64
2023-04-15T20:17:17.103Z,15.09
2023-04-15T20:19:44.088Z,14.93
2023-04-15T20:22:10.966Z,14.97
2023-04-15T20:24:38.033Z,15.04
2023-04-15T20:27:05.099Z,15.00
2023-04-15T20:29:32.062Z,15.07
2023-04-15T20:31:59.152Z,14.92
2023-04-15T20:34:26.250Z,15.01
2023-04-15T20:36:53.212Z,14.89
2023-04-15T20:39:20.284Z,14.90
2023-04-15T20:41:47.568Z,15.08
2023-04-15T20:44:15.407Z,15.09
2023-04-15T20:46:42.728Z,14.90
2023-04-15T20:49:10.385Z,14.92
2023-04-15T20:51:38.125Z,14.87
2023-04-15T20:54:05.851Z,14.82
2023-04-15T20:56:33.055Z,14.87
2023-04-15T20:59:01.092Z,14.88
2023-04-15T21:01:28.113Z,14.77
2023-04-15T21:03:55.623Z,14.85
2023-04-15T21:06:22.656Z,14.78
2023-04-15T21:08:49.649Z,14.80
2023-04-15T21:11:33.207Z,14.76
2023-04-15T21:14:07.416Z,14.80
2023-04-15T21:16:34.549Z,14.65
2023-04-15T21:25:43.201Z,14.66
2023-04-15T21:28:10.096Z,14.71
2023-04-15T21:30:37.487Z,14.76
2023-04-15T21:33:04.586Z,14.72
2023-04-15T21:35:31.797Z,14.69
2023-04-15T21:37:58.733Z,14.64
2023-04-15T21:40:25.974Z,14.72
2023-04-15T21:42:53.236Z,14.52
2023-04-15T21:45:20.296Z,14.45
2023-04-15T21:48:00.274Z,14.04
2023-04-15T21:50:35.790Z,14.21
2023-04-15T21:53:04.289Z,14.24
2023-04-15T21:55:31.274Z,14.19
2023-04-15T21:58:05.330Z,14.12
2023-04-15T22:00:35.662Z,13.88
2023-04-15T22:03:02.747Z,14.04
2023-04-15T22:05:29.806Z,13.95
2023-04-15T22:07:58.290Z,13.74
2023-04-15T22:10:25.376Z,13.78
2023-04-15T22:12:52.437Z,13.78
2023-04-15T22:15:19.423Z,13.65
2023-04-15T22:17:46.903Z,13.68
2023-04-15T22:20:14.114Z,13.67
2023-04-15T22:22:44.317Z,13.57
2023-04-15T22:25:12.601Z,13.41
2023-04-15T22:27:39.959Z,13.45
2023-04-15T22:30:07.967Z,13.50
2023-04-15T22:32:35.091Z,13.35
2023-04-15T22:35:02.548Z,13.33
2023-04-15T22:37:31.937Z,13.37
2023-04-15T22:39:59.492Z,13.28
2023-04-15T22:42:26.791Z,13.49
2023-04-15T22:44:53.902Z,13.52
2023-04-15T22:47:20.967Z,13.47
2023-04-15T22:49:47.969Z,13.36
2023-04-15T22:52:29.500Z,13.31
2023-04-15T22:54:58.570Z,13.41
2023-04-15T22:57:27.858Z,13.35
2023-04-15T22:59:55.003Z,13.29
2023-04-15T23:02:22.168Z,13.21
2023-04-15T23:04:49.358Z,13.18
2023-04-15T23:07:16.384Z,13.08
2023-04-15T23:09:43.335Z,12.93
2023-04-15T23:12:10.541Z,12.99
2023-04-15T23:14:37.457Z,13.04
2023-04-15T23:17:04.392Z,13.02
2023-04-15T23:19:31.343Z,13.03
2023-04-15T23:21:58.428Z,13.15
2023-04-15T23:24:25.434Z,13.08
2023-04-15T23:26:53.186Z,13.05
2023-04-15T23:29:20.204Z,13.12
2023-04-15T23:31:47.213Z,13.01
2023-04-15T23:34:14.195Z,12.97
2023-04-15T23:36:41.163Z,12.99
2023-04-15T23:39:08.379Z,13.04
2023-04-15T23:41:36.634Z,12.77
2023-04-15T23:44:03.729Z,12.62
2023-04-15T23:46:31.098Z,12.73
2023-04-15T23:48:58.156Z,12.73
2023-04-15T23:51:25.084Z,12.66
2023-04-15T23:53:52.430Z,12.58
2023-04-15T23:56:19.519Z,12.61
2023-04-15T23:58:46.602Z,12.36
